Flight Track Log - Related Links

Times and Time Zones

All times are in EDT time to prevent confusion due to time zone crossing. See the PDT4314 flight status page for this flight to view local times or setup timezone preferences in your user account.

Time Position Orientation Groundspeed Altitude Reporting Facility
EDT Latitude Longitude Course Direction KTS MPH feet Rate Location/Type
Tue 04:30:40 PM 39.9000 -75.2333 293° West 125 144 400  Level Philadelphia TRACON
Tue 04:31:05 PM 39.9000 -75.2500 270° West 124 143 1,200 1,412 Climbing Philadelphia TRACON
Tue 04:32:05 PM 39.9167 -75.3000 294° West 142 163 2,400 1,100 Climbing Philadelphia TRACON
Tue 04:33:00 PM 40.0700 -75.3014 323° Northwest  Level Estimated
Tue 04:33:05 PM 39.9333 -75.3500 294° West 131 151 3,400  Level Philadelphia TRACON
Tue 04:34:00 PM 40.1359 -75.3216 311° West  Level Estimated
Tue 04:34:05 PM 39.9500 -75.3833 303° West 135 155 4,600  Level Philadelphia TRACON
Tue 04:35:00 PM 40.2018 -75.3419 311° West  Level Estimated
Tue 04:35:05 PM 39.9500 -75.4333 270° West 125 144 5,700  Level Philadelphia TRACON
Tue 04:36:00 PM 40.2281 -75.4236 293° West  Level FlightAware Approximate
Tue 04:36:05 PM 39.9667 -75.4833 294° West 137 158 6,600  Level Philadelphia TRACON
Tue 04:37:05 PM 39.9833 -75.5167 303° West 135 155 7,700 1,100 Climbing Philadelphia TRACON
Tue 04:38:05 PM 40.0000 -75.5667 294° West 133 153 8,800 650 Climbing Philadelphia TRACON
Tue 04:39:05 PM 40.0333 -75.5833 339° North 215 247 9,000 100 Climbing Philadelphia TRACON
Tue 04:40:05 PM 40.1000 -75.5667 11° North 251 289 9,000  Level Philadelphia TRACON
Tue 04:41:16 PM 40.1694 -75.5328 20° North 280 322 9,000 504 Level New York Center
Tue 04:42:16 PM 40.2286 -75.5639 338° Northwest 220 253 10,100 950 Climbing New York Center
Tue 04:43:16 PM 40.2519 -75.6064 306° West 169 194 10,900 800 Climbing New York Center
Tue 04:44:16 PM 40.2836 -75.6494 314° West 151 174 11,700 800 Climbing New York Center
Tue 04:45:16 PM 40.3092 -75.6867 312° West 151 174 12,500 750 Climbing New York Center
Tue 04:46:16 PM 40.3344 -75.7292 308° West 151 174 13,200 750 Climbing New York Center
Tue 04:47:16 PM 40.3636 -75.7775 308° West 151 174 14,000 400 Climbing New York Center
Tue 04:48:16 PM 40.3950 -75.8261 310° West 165 190 14,000  Level New York Center
Tue 04:49:16 PM 40.4322 -75.8781 313° West 179 206 14,000  Level New York Center
Tue 04:50:16 PM 40.4694 -75.9353 311° West 196 226 14,000  Level New York Center
Tue 04:51:16 PM 40.5136 -75.9714 328° Northwest 209 241 14,000  Level New York Center
Tue 04:52:16 PM 40.5856 -75.9961 345° North 230 265 14,000  Level New York Center
Tue 04:53:16 PM 40.6536 -76.0150 348° North 239 275 14,000  Level New York Center
Tue 04:54:16 PM 40.7169 -76.0417 342° North 239 275 14,000  Level New York Center
Tue 04:55:16 PM 40.7744 -76.0597 347° North 234 269 14,000  Level New York Center
Tue 04:56:16 PM 40.8483 -76.0819 347° North 242 278 14,000  Level New York Center
Tue 04:57:16 PM 40.9122 -76.1033 346° North 237 273 14,000  Level New York Center
Tue 04:58:16 PM 40.9778 -76.1278 344° North 237 273 14,000  Level New York Center
Tue 04:59:16 PM 41.0417 -76.1439 349° North 237 273 14,000  Level New York Center
Tue 05:00:16 PM 41.1028 -76.1708 342° North 232 267 14,000  Level New York Center
Tue 05:01:16 PM 41.1667 -76.1897 347° North 232 267 14,000  Level New York Center
Tue 05:02:16 PM 41.2219 -76.2050 348° North 232 267 14,000  Level New York Center
Tue 05:03:16 PM 41.2867 -76.2047 360° North 232 267 14,000  Level New York Center
Tue 05:04:16 PM 41.3622 -76.1914 North 237 273 14,000  Level New York Center
Tue 05:05:16 PM 41.4289 -76.1942 358° North 237 273 14,000  Level New York Center
Tue 05:06:16 PM 41.4956 -76.1939 360° North 237 273 14,000  Level New York Center
Tue 05:07:16 PM 41.5542 -76.1875 North 237 273 14,000  Level New York Center
Tue 05:08:16 PM 41.6231 -76.1794 North 237 273 14,000 -250 Level New York Center
Tue 05:09:16 PM 41.6986 -76.1717 North 237 273 13,500 -950 Descending New York Center
Tue 05:10:16 PM 41.7692 -76.1717 360° North 244 281 12,100 -1,500 Descending New York Center
Tue 05:11:16 PM 41.8381 -76.1689 North 244 281 10,500 -1,500 Descending New York Center
Tue 05:12:16 PM 41.8989 -76.1628 North 244 281 9,100 -1,050 Descending New York Center
Tue 05:13:16 PM 41.9569 -76.1172 30° Northeast 233 268 8,400 -1,200 Descending New York Center
Tue 05:14:16 PM 42.0178 -76.0636 33° Northeast 240 276 6,700 -1,650 Descending New York Center
Tue 05:15:16 PM 42.0722 -76.0092 37° Northeast 240 276 5,100 -1,400 Descending New York Center
Tue 05:16:16 PM 42.1222 -75.9628 35° Northeast 233 268 3,900 -1,100 Descending New York Center
Tue 05:17:16 PM 42.1631 -75.9325 29° Northeast 197 227 2,900 -750 Descending New York Center
Tue 05:18:16 PM 42.2003 -75.9383 353° North 151 174 2,400 -350 Descending New York Center
Tue 05:19:16 PM 42.2250 -75.9403 357° North 122 140 2,200 -200 Descending New York Center

Login

Don't have an account? Register now (free) for customized features, flight alerts, and more!